Time;durP1;ratioP1;P1;durP2;ratioP2;P2;SDS_P1;SDS_P2;PMS_P1;PMS_P2;Temp;Humidity;BMP_temperature;BMP_pressure;BME280_temperature;BME280_humidity;BME280_pressure;Samples;Min_cycle;Max_cycle;Signal;HPM_P1;HPM_P2
2024/04/08 00:00:28;;;;;;;1.35;0.40;;;10.00;1.00;;;;;;4971039;28;20076;-78
2024/04/08 00:02:54;;;;;;;0.90;0.50;;;10.00;1.00;;;;;;4970703;28;20057;-79
2024/04/08 00:05:20;;;;;;;0.60;0.32;;;10.00;1.00;;;;;;4986417;28;20132;-78
2024/04/08 00:07:46;;;;;;;0.45;0.30;;;10.00;1.00;;;;;;4966669;28;20258;-79
2024/04/08 00:10:12;;;;;;;0.32;0.30;;;10.00;1.00;;;;;;4985816;28;20054;-79
2024/04/08 00:12:41;;;;;;;0.55;0.30;;;10.00;1.00;;;;;;4984974;28;20520;-79
2024/04/08 00:15:08;;;;;;;0.38;0.22;;;10.00;99.90;;;;;;4969542;28;20132;-78
2024/04/08 00:17:34;;;;;;;0.35;0.30;;;10.00;1.00;;;;;;4985399;28;20156;-79
2024/04/08 00:20:00;;;;;;;0.40;0.20;;;10.00;99.90;;;;;;4985519;28;20716;-79
2024/04/08 00:22:26;;;;;;;0.20;0.20;;;10.00;1.00;;;;;;4984870;28;20520;-79
2024/04/08 00:24:52;;;;;;;0.60;0.20;;;10.10;1.00;;;;;;5001645;28;20198;-79
2024/04/08 00:27:18;;;;;;;0.28;0.20;;;10.10;1.00;;;;;;4986333;28;20053;-79
2024/04/08 00:29:44;;;;;;;0.32;0.30;;;10.00;1.00;;;;;;4986003;28;20050;-79
2024/04/08 00:32:10;;;;;;;1.40;0.32;;;10.00;1.00;;;;;;5002118;28;20088;-80
2024/04/08 00:34:36;;;;;;;0.20;0.20;;;10.00;1.00;;;;;;4969590;28;20061;-79
2024/04/08 00:37:02;;;;;;;1.15;0.25;;;10.00;1.00;;;;;;4969901;28;20061;-79
2024/04/08 00:39:28;;;;;;;1.45;0.30;;;9.90;1.00;;;;;;4985578;28;20549;-79
2024/04/08 00:41:54;;;;;;;0.40;0.40;;;9.90;1.00;;;;;;4966326;28;20066;-79
2024/04/08 00:44:20;;;;;;;0.30;0.20;;;9.90;1.00;;;;;;4998534;28;20487;-79
2024/04/08 00:46:48;;;;;;;0.73;0.38;;;9.90;1.00;;;;;;5002415;28;20049;-79
2024/04/08 00:49:14;;;;;;;0.30;0.20;;;9.90;1.00;;;;;;5018853;28;20053;-79
2024/04/08 00:51:44;;;;;;;1.25;0.40;;;9.90;1.00;;;;;;5001799;28;20087;-79
2024/04/08 00:54:09;;;;;;;1.58;0.52;;;9.90;1.00;;;;;;5002605;28;20057;-79
2024/04/08 00:56:36;;;;;;;0.60;0.25;;;10.00;1.00;;;;;;4969643;28;20877;-79
2024/04/08 00:59:03;;;;;;;0.25;0.20;;;10.00;1.00;;;;;;4970456;28;20103;-79
2024/04/08 01:01:29;;;;;;;0.55;0.43;;;10.00;1.00;;;;;;4970097;28;20065;-79
2024/04/08 01:03:56;;;;;;;1.00;0.20;;;10.10;1.00;;;;;;4965810;28;20054;-78
2024/04/08 01:06:22;;;;;;;0.43;0.32;;;10.10;1.00;;;;;;4983962;28;20073;-79
2024/04/08 01:08:49;;;;;;;0.65;0.40;;;10.20;1.00;;;;;;4986211;28;20053;-79
2024/04/08 01:11:15;;;;;;;0.60;0.28;;;10.20;29.20;;;;;;4968838;28;20053;-79
2024/04/08 01:13:41;;;;;;;1.30;0.30;;;10.20;1.00;;;;;;4987753;28;20072;-79
2024/04/08 01:16:07;;;;;;;0.65;0.30;;;10.20;1.00;;;;;;4974189;28;20078;-78
2024/04/08 01:18:33;;;;;;;0.40;0.28;;;10.20;1.00;;;;;;4973580;28;20681;-79
2024/04/08 01:21:02;;;;;;;0.20;0.20;;;10.20;1.00;;;;;;4973547;28;20064;-79
2024/04/08 01:23:29;;;;;;;0.30;0.30;;;10.20;1.00;;;;;;4989455;28;20099;-78
2024/04/08 01:25:55;;;;;;;0.88;0.40;;;10.30;30.00;;;;;;4989673;28;20064;-79
2024/04/08 01:28:21;;;;;;;0.63;0.30;;;10.20;37.80;;;;;;4970493;28;20057;-80
2024/04/08 01:30:51;;;;;;;0.93;0.50;;;10.20;57.50;;;;;;4989591;28;20057;-80
2024/04/08 01:33:17;;;;;;;0.75;0.30;;;10.20;22.60;;;;;;4990768;28;20072;-80
2024/04/08 01:35:42;;;;;;;0.88;0.30;;;10.30;98.00;;;;;;4989761;28;20501;-80
2024/04/08 01:38:08;;;;;;;1.17;0.47;;;10.20;99.90;;;;;;4973177;28;20056;-80
2024/04/08 01:40:34;;;;;;;1.17;0.40;;;10.20;95.30;;;;;;5000912;28;20065;-81
2024/04/08 01:43:00;;;;;;;1.30;0.40;;;10.20;57.20;;;;;;5008912;28;20404;-81
2024/04/08 01:45:26;;;;;;;0.55;0.32;;;10.20;64.30;;;;;;4992994;28;20049;-80
2024/04/08 01:47:52;;;;;;;0.20;0.20;;;10.20;29.30;;;;;;5009487;28;20061;-81
2024/04/08 01:50:18;;;;;;;0.75;0.40;;;10.20;18.90;;;;;;4992509;28;20057;-80
2024/04/08 01:52:44;;;;;;;1.10;0.38;;;10.20;5.10;;;;;;4992534;28;20050;-79
2024/04/08 01:55:10;;;;;;;1.20;0.35;;;10.20;6.90;;;;;;4976304;28;20164;-78
2024/04/08 01:57:35;;;;;;;0.88;0.22;;;10.20;28.50;;;;;;5009373;28;20058;-79
2024/04/08 02:00:02;;;;;;;0.95;0.28;;;10.20;52.50;;;;;;5009466;28;20053;-79
2024/04/08 02:02:28;;;;;;;0.90;0.30;;;10.20;28.80;;;;;;4976978;28;20811;-79
2024/04/08 02:04:54;;;;;;;0.70;0.35;;;10.20;70.90;;;;;;4992723;28;20103;-79
2024/04/08 02:07:19;;;;;;;0.70;0.30;;;10.30;7.90;;;;;;4976276;28;20108;-79
2024/04/08 02:09:45;;;;;;;1.05;0.50;;;10.30;1.00;;;;;;4976002;28;20057;-79
2024/04/08 02:12:11;;;;;;;0.45;0.30;;;10.30;1.00;;;;;;4992394;28;20055;-79
2024/04/08 02:14:37;;;;;;;0.32;0.17;;;10.30;25.60;;;;;;4976847;28;20652;-79
2024/04/08 02:17:04;;;;;;;0.77;0.25;;;10.30;11.90;;;;;;4976874;28;20050;-79
2024/04/08 02:19:29;;;;;;;0.30;0.20;;;10.30;99.90;;;;;;5008750;28;20534;-79
2024/04/08 02:21:55;;;;;;;0.40;0.20;;;10.30;1.00;;;;;;4975947;28;20069;-78
2024/04/08 02:24:22;;;;;;;0.47;0.30;;;10.30;1.00;;;;;;4991233;28;20111;-79
2024/04/08 02:26:47;;;;;;;1.00;0.40;;;10.30;1.00;;;;;;4990003;28;20409;-79
2024/04/08 02:29:13;;;;;;;1.75;0.70;;;10.30;1.00;;;;;;4989165;28;20050;-79
2024/04/08 02:31:39;;;;;;;0.63;0.30;;;10.30;1.00;;;;;;4973094;28;20458;-79
2024/04/08 02:34:05;;;;;;;0.28;0.20;;;10.20;1.00;;;;;;5006287;28;20108;-78
2024/04/08 02:36:31;;;;;;;0.57;0.20;;;10.20;1.00;;;;;;4992348;28;20068;-79
2024/04/08 02:38:58;;;;;;;0.75;0.30;;;10.20;12.30;;;;;;5007966;28;20050;-79
2024/04/08 02:41:24;;;;;;;0.70;0.30;;;10.20;1.00;;;;;;5007797;28;20053;-79
2024/04/08 02:43:50;;;;;;;0.47;0.25;;;10.20;1.00;;;;;;4992599;28;20073;-79
2024/04/08 02:46:16;;;;;;;0.20;0.20;;;10.20;16.90;;;;;;4975940;28;20096;-78
2024/04/08 02:48:42;;;;;;;1.20;0.20;;;10.10;63.00;;;;;;4992200;28;20057;-79
2024/04/08 02:51:08;;;;;;;0.40;0.40;;;10.10;17.80;;;;;;4991051;28;20095;-79
2024/04/08 02:53:34;;;;;;;0.20;0.20;;;10.10;33.70;;;;;;4990019;28;20061;-78
2024/04/08 02:56:00;;;;;;;0.57;0.35;;;10.10;63.90;;;;;;5005888;28;20061;-79
2024/04/08 02:58:26;;;;;;;0.47;0.30;;;10.10;52.00;;;;;;5008335;28;20056;-79
2024/04/08 03:00:53;;;;;;;1.00;0.40;;;10.00;51.80;;;;;;4992090;28;20057;-78
2024/04/08 03:03:19;;;;;;;0.77;0.22;;;10.00;37.20;;;;;;4991429;28;20053;-79
2024/04/08 03:05:45;;;;;;;1.30;0.30;;;10.00;99.90;;;;;;4976057;28;20126;-78
2024/04/08 03:08:11;;;;;;;0.40;0.30;;;10.00;99.90;;;;;;4991563;28;20057;-79
2024/04/08 03:10:37;;;;;;;1.08;0.30;;;10.00;99.90;;;;;;5007329;28;20058;-78
2024/04/08 03:13:03;;;;;;;0.47;0.20;;;9.90;99.90;;;;;;4991214;28;20187;-79
2024/04/08 03:15:29;;;;;;;1.92;0.57;;;10.00;99.90;;;;;;4975344;28;20057;-79
2024/04/08 03:17:55;;;;;;;0.30;0.30;;;9.90;99.90;;;;;;4991272;28;20063;-79
2024/04/08 03:20:20;;;;;;;0.38;0.25;;;9.90;99.90;;;;;;5007256;28;20097;-79
2024/04/08 03:22:46;;;;;;;0.98;0.28;;;9.90;99.90;;;;;;4991196;28;20057;-78
2024/04/08 03:25:12;;;;;;;0.52;0.40;;;9.80;99.90;;;;;;4974546;28;20060;-79
2024/04/08 03:27:41;;;;;;;1.55;0.30;;;9.80;99.90;;;;;;4991377;28;20064;-78
2024/04/08 03:30:07;;;;;;;0.95;0.47;;;9.80;99.90;;;;;;5007738;28;20665;-79
2024/04/08 03:32:33;;;;;;;0.65;0.35;;;9.80;99.90;;;;;;4991487;28;20547;-78
2024/04/08 03:34:59;;;;;;;0.88;0.30;;;9.90;99.90;;;;;;4974510;28;20076;-79
2024/04/08 03:37:26;;;;;;;0.28;0.20;;;9.90;99.90;;;;;;4990414;28;20049;-79
2024/04/08 03:39:52;;;;;;;0.20;0.20;;;9.90;99.90;;;;;;4990937;28;20072;-78
2024/04/08 03:42:21;;;;;;;0.57;0.30;;;9.90;1.00;;;;;;4974636;28;20485;-79
2024/04/08 03:44:52;;;;;;;0.32;0.28;;;10.00;1.00;;;;;;4976067;28;20053;-78
2024/04/08 03:47:18;;;;;;;0.20;0.20;;;10.00;1.00;;;;;;4990739;28;20056;-79
2024/04/08 03:49:45;;;;;;;0.60;0.28;;;10.00;1.00;;;;;;4990727;28;20081;-79
2024/04/08 03:52:12;;;;;;;0.50;0.30;;;10.00;1.00;;;;;;4991189;28;20053;-79
2024/04/08 03:54:38;;;;;;;0.50;0.30;;;10.00;1.00;;;;;;4986729;28;20057;-78
2024/04/08 03:57:04;;;;;;;0.73;0.30;;;10.00;1.00;;;;;;4987022;28;20054;-79
2024/04/08 03:59:30;;;;;;;0.32;0.30;;;10.00;1.00;;;;;;4971503;28;20050;-79
2024/04/08 04:01:56;;;;;;;0.35;0.25;;;10.00;1.00;;;;;;4990658;28;20057;-79
2024/04/08 04:04:21;;;;;;;0.88;0.35;;;10.00;1.00;;;;;;5007130;28;20127;-79
2024/04/08 04:06:48;;;;;;;0.20;0.20;;;10.10;1.00;;;;;;5006098;28;20054;-79
2024/04/08 04:09:14;;;;;;;0.17;0.17;;;10.10;1.00;;;;;;4990200;28;20054;-79
2024/04/08 04:11:39;;;;;;;0.50;0.28;;;10.10;1.00;;;;;;4990277;28;20136;-79
2024/04/08 04:14:06;;;;;;;0.82;0.30;;;10.10;1.00;;;;;;4991123;28;20108;-79
2024/04/08 04:16:33;;;;;;;1.65;0.25;;;10.10;1.00;;;;;;4971032;28;20061;-79
2024/04/08 04:18:59;;;;;;;0.15;0.15;;;10.10;1.00;;;;;;4987124;28;20067;-79
2024/04/08 04:21:27;;;;;;;0.30;0.22;;;10.10;1.00;;;;;;4980801;28;20135;-79
2024/04/08 04:23:52;;;;;;;0.88;0.40;;;10.10;1.00;;;;;;5018304;28;20389;-79
2024/04/08 04:26:18;;;;;;;0.52;0.40;;;10.10;1.00;;;;;;4989580;28;20100;-79
2024/04/08 04:28:44;;;;;;;0.22;0.20;;;10.10;67.00;;;;;;4990253;28;20410;-79
2024/04/08 04:31:10;;;;;;;0.95;0.47;;;10.10;35.70;;;;;;4990238;28;20053;-79
2024/04/08 04:33:36;;;;;;;0.17;0.15;;;10.20;76.70;;;;;;4974023;28;20057;-79
2024/04/08 04:36:03;;;;;;;0.30;0.30;;;10.20;1.00;;;;;;4986506;28;20065;-79
2024/04/08 04:38:29;;;;;;;0.85;0.40;;;10.20;1.00;;;;;;4990103;28;20062;-79
2024/04/08 04:41:05;;;;;;;0.80;0.30;;;10.20;1.00;;;;;;5005532;28;20405;-78
2024/04/08 04:43:31;;;;;;;0.52;0.40;;;10.20;41.60;;;;;;4974042;28;20104;-78
2024/04/08 04:45:57;;;;;;;0.73;0.38;;;10.20;21.20;;;;;;4989896;28;20342;-77
2024/04/08 04:48:24;;;;;;;1.73;0.40;;;10.20;21.90;;;;;;4972714;28;20066;-78
2024/04/08 04:50:50;;;;;;;0.60;0.32;;;10.30;99.90;;;;;;4973102;28;20491;-78
2024/04/08 04:53:16;;;;;;;0.52;0.20;;;10.20;52.90;;;;;;4986356;28;20054;-79
2024/04/08 04:55:42;;;;;;;0.68;0.32;;;10.30;59.00;;;;;;4989175;28;20057;-79
2024/04/08 04:58:08;;;;;;;0.30;0.30;;;10.20;51.30;;;;;;4998813;28;20733;-78
2024/04/08 05:00:37;;;;;;;0.75;0.30;;;10.20;1.00;;;;;;5005665;28;20076;-79
2024/04/08 05:03:04;;;;;;;0.52;0.20;;;10.20;1.00;;;;;;4985466;28;20057;-79
2024/04/08 05:05:30;;;;;;;0.45;0.45;;;10.20;25.50;;;;;;4985011;28;20477;-80
2024/04/08 05:07:56;;;;;;;0.30;0.30;;;10.10;19.30;;;;;;4982457;28;20057;-81
2024/04/08 05:10:22;;;;;;;0.20;0.20;;;10.10;61.10;;;;;;5000354;28;20696;-81
2024/04/08 05:12:47;;;;;;;0.20;0.20;;;10.00;45.00;;;;;;4980712;28;20052;-80
2024/04/08 05:15:13;;;;;;;0.50;0.30;;;10.00;95.90;;;;;;4980317;28;20080;-79
2024/04/08 05:17:39;;;;;;;0.57;0.20;;;9.90;94.20;;;;;;5001699;28;20064;-78
2024/04/08 05:20:09;;;;;;;1.30;0.57;;;9.90;99.90;;;;;;4967939;28;20068;-79
2024/04/08 05:22:36;;;;;;;0.40;0.28;;;9.90;99.90;;;;;;4975193;28;20061;-79
2024/04/08 05:25:02;;;;;;;0.40;0.40;;;9.90;99.90;;;;;;4985451;28;20061;-77
2024/04/08 05:27:27;;;;;;;0.95;0.32;;;9.90;99.90;;;;;;4969607;28;20075;-78
2024/04/08 05:29:54;;;;;;;0.32;0.32;;;9.80;99.90;;;;;;5002922;28;20088;-81
2024/04/08 05:32:20;;;;;;;0.22;0.22;;;9.80;99.90;;;;;;5001555;28;20054;-80
2024/04/08 05:34:46;;;;;;;0.30;0.30;;;9.80;1.00;;;;;;4986302;28;20445;-81
2024/04/08 05:37:12;;;;;;;0.43;0.43;;;9.80;1.00;;;;;;4981754;28;20057;-79
2024/04/08 05:39:37;;;;;;;0.20;0.20;;;9.80;99.90;;;;;;4997140;28;20386;-79
2024/04/08 05:42:03;;;;;;;0.47;0.30;;;9.80;99.90;;;;;;4971093;28;20071;-80
2024/04/08 05:44:29;;;;;;;0.50;0.47;;;9.80;99.90;;;;;;5001791;28;20065;-80
2024/04/08 05:46:56;;;;;;;0.80;0.30;;;9.80;1.00;;;;;;4983320;28;20053;-79
2024/04/08 05:49:21;;;;;;;0.77;0.40;;;9.80;1.00;;;;;;4984119;28;20489;-79
2024/04/08 05:51:47;;;;;;;0.57;0.40;;;9.80;1.00;;;;;;4968099;28;20108;-79
2024/04/08 05:54:14;;;;;;;0.93;0.30;;;9.80;1.00;;;;;;5001179;28;20510;-79
2024/04/08 05:56:39;;;;;;;0.30;0.30;;;9.80;1.00;;;;;;5001506;28;20064;-79
2024/04/08 05:59:05;;;;;;;0.50;0.30;;;9.90;1.00;;;;;;4982236;28;20604;-79
2024/04/08 06:01:32;;;;;;;0.65;0.43;;;9.90;1.00;;;;;;4982936;28;20068;-80
2024/04/08 06:03:58;;;;;;;0.43;0.30;;;10.00;1.00;;;;;;4969856;28;20377;-79
2024/04/08 06:06:24;;;;;;;0.77;0.35;;;10.00;1.00;;;;;;4964762;28;20053;-79
2024/04/08 06:08:55;;;;;;;1.48;0.50;;;10.10;1.00;;;;;;4971979;28;20417;-75
2024/04/08 06:11:21;;;;;;;0.90;0.30;;;10.20;1.00;;;;;;4987379;28;20045;-79
2024/04/08 06:13:47;;;;;;;0.70;0.30;;;10.30;1.00;;;;;;5004603;28;20065;-79
2024/04/08 06:16:13;;;;;;;0.38;0.30;;;10.30;99.90;;;;;;4986996;28;20130;-78
2024/04/08 06:18:39;;;;;;;0.45;0.40;;;10.40;99.90;;;;;;5005235;28;20064;-79
2024/04/08 06:21:05;;;;;;;0.57;0.28;;;10.40;99.90;;;;;;5004514;28;20053;-79
2024/04/08 06:23:32;;;;;;;1.17;0.22;;;10.50;99.90;;;;;;5020780;28;20130;-78
2024/04/08 06:26:01;;;;;;;0.77;0.30;;;10.60;99.90;;;;;;5005432;28;20076;-79
2024/04/08 06:28:27;;;;;;;0.50;0.30;;;10.60;99.90;;;;;;5005364;28;20130;-79
2024/04/08 06:30:53;;;;;;;1.02;0.40;;;10.70;99.90;;;;;;5020937;28;20543;-78
2024/04/08 06:33:18;;;;;;;0.30;0.30;;;10.70;54.90;;;;;;5004411;28;20049;-79
2024/04/08 06:35:45;;;;;;;1.15;0.68;;;10.80;99.90;;;;;;5002165;28;20061;-79
2024/04/08 06:38:13;;;;;;;0.22;0.20;;;10.80;11.10;;;;;;5005540;28;20061;-79
2024/04/08 06:40:42;;;;;;;0.73;0.35;;;10.80;1.00;;;;;;5005988;28;20108;-78
2024/04/08 06:43:09;;;;;;;0.35;0.22;;;10.90;1.00;;;;;;4991068;28;20061;-79
2024/04/08 06:45:35;;;;;;;0.52;0.32;;;10.90;99.90;;;;;;5004702;28;20069;-79
2024/04/08 06:48:01;;;;;;;0.70;0.15;;;11.00;99.90;;;;;;5007723;28;20064;-78
2024/04/08 06:50:28;;;;;;;0.63;0.30;;;11.00;99.90;;;;;;5007235;28;20578;-79
2024/04/08 06:52:54;;;;;;;0.35;0.30;;;11.00;99.90;;;;;;5023398;28;20057;-79
2024/04/08 06:55:20;;;;;;;1.55;0.75;;;11.10;99.90;;;;;;5007709;28;20071;-78
2024/04/08 06:57:46;;;;;;;0.32;0.30;;;11.10;99.90;;;;;;5007130;28;20501;-78
2024/04/08 07:00:12;;;;;;;0.60;0.38;;;11.10;99.90;;;;;;5007831;28;20053;-77
2024/04/08 07:02:39;;;;;;;0.65;0.32;;;11.10;99.90;;;;;;4998799;28;20057;-79
2024/04/08 07:05:05;;;;;;;0.90;0.45;;;11.10;99.90;;;;;;5023688;28;20060;-78
2024/04/08 07:07:31;;;;;;;0.20;0.20;;;11.10;99.90;;;;;;4991034;28;20064;-78
2024/04/08 07:09:57;;;;;;;0.70;0.40;;;11.20;99.90;;;;;;5006779;28;20128;-80
2024/04/08 07:12:23;;;;;;;0.45;0.20;;;11.30;99.90;;;;;;5005402;28;20129;-80
2024/04/08 07:14:52;;;;;;;0.75;0.40;;;11.30;99.90;;;;;;4990799;28;20067;-81
2024/04/08 07:17:19;;;;;;;0.63;0.35;;;11.40;99.90;;;;;;4991195;28;20057;-81
2024/04/08 07:19:45;;;;;;;1.30;0.30;;;11.40;99.90;;;;;;4991437;28;20127;-82
2024/04/08 07:22:11;;;;;;;0.60;0.40;;;11.50;58.70;;;;;;4990709;28;20492;-80
2024/04/08 07:24:37;;;;;;;0.60;0.30;;;11.50;19.50;;;;;;4991098;28;20065;-81
2024/04/08 07:27:05;;;;;;;1.30;0.40;;;11.60;1.00;;;;;;5004593;28;20080;-80
2024/04/08 07:29:31;;;;;;;0.75;0.35;;;11.60;1.00;;;;;;5004662;28;20053;-81
2024/04/08 07:31:58;;;;;;;1.10;0.38;;;11.70;1.00;;;;;;5005152;28;20057;-82
2024/04/08 07:34:24;;;;;;;1.13;0.43;;;11.80;1.00;;;;;;4974843;28;20061;-81
2024/04/08 07:36:50;;;;;;;0.98;0.40;;;11.90;1.00;;;;;;4990054;28;20053;-81
2024/04/08 07:39:16;;;;;;;1.13;0.40;;;11.90;1.00;;;;;;5007095;28;20128;-81
2024/04/08 07:41:42;;;;;;;1.00;0.50;;;12.00;99.90;;;;;;5022577;28;20053;-82
2024/04/08 07:44:08;;;;;;;0.50;0.30;;;12.10;99.90;;;;;;5007104;28;20052;-81
2024/04/08 07:46:34;;;;;;;1.50;0.38;;;12.20;99.90;;;;;;4974071;28;20123;-81
2024/04/08 07:49:00;;;;;;;1.00;0.30;;;12.30;99.90;;;;;;5006650;28;20046;-81
2024/04/08 07:51:26;;;;;;;1.17;0.40;;;12.40;99.90;;;;;;5022623;28;20057;-82
2024/04/08 07:53:52;;;;;;;0.77;0.45;;;12.50;99.90;;;;;;4990540;28;20111;-81
2024/04/08 07:56:19;;;;;;;0.50;0.43;;;12.60;99.90;;;;;;4989717;28;20054;-81
2024/04/08 07:58:45;;;;;;;0.35;0.30;;;12.70;99.90;;;;;;5024124;28;20051;-81
2024/04/08 08:01:11;;;;;;;1.27;0.38;;;12.90;99.90;;;;;;4990143;28;20060;-81
2024/04/08 08:03:38;;;;;;;0.73;0.32;;;13.00;99.90;;;;;;5022828;28;20057;-81
2024/04/08 08:06:04;;;;;;;0.70;0.30;;;13.00;99.90;;;;;;5006353;28;20615;-81
2024/04/08 08:08:30;;;;;;;1.85;0.80;;;13.10;99.90;;;;;;4989607;28;20057;-81
2024/04/08 08:11:05;;;;;;;0.68;0.40;;;13.20;99.90;;;;;;4986314;28;20108;-82
2024/04/08 08:13:32;;;;;;;0.85;0.55;;;13.20;99.90;;;;;;5001709;28;20115;-81
2024/04/08 08:15:58;;;;;;;0.60;0.32;;;13.40;99.90;;;;;;4990390;28;20555;-81
2024/04/08 08:18:24;;;;;;;0.20;0.20;;;13.50;99.90;;;;;;5023042;28;20409;-81
2024/04/08 08:20:51;;;;;;;0.75;0.40;;;13.60;99.90;;;;;;5022381;28;20147;-82
2024/04/08 08:23:17;;;;;;;0.50;0.30;;;13.70;99.90;;;;;;5021689;28;20424;-82
2024/04/08 08:25:43;;;;;;;0.75;0.40;;;13.80;99.90;;;;;;5006328;28;20132;-81
2024/04/08 08:28:08;;;;;;;0.55;0.40;;;13.90;99.90;;;;;;5006144;28;20057;-82
2024/04/08 08:30:35;;;;;;;1.15;0.50;;;14.00;95.30;;;;;;4989752;28;20057;-81
2024/04/08 08:33:01;;;;;;;0.77;0.50;;;14.10;99.90;;;;;;5005906;28;20060;-81
2024/04/08 08:35:30;;;;;;;0.47;0.40;;;14.20;97.60;;;;;;5004718;28;20049;-83
2024/04/08 08:37:57;;;;;;;0.55;0.40;;;14.20;95.20;;;;;;4973236;28;20064;-80
2024/04/08 08:40:23;;;;;;;1.33;0.40;;;14.30;76.90;;;;;;5000366;28;20057;-79
2024/04/08 08:42:50;;;;;;;0.43;0.40;;;14.40;74.50;;;;;;4978575;28;20046;-78
2024/04/08 08:45:16;;;;;;;0.75;0.50;;;14.40;68.20;;;;;;4996052;28;20131;-80
2024/04/08 08:47:42;;;;;;;1.67;0.60;;;14.50;60.80;;;;;;4980426;28;20476;-79
2024/04/08 08:50:09;;;;;;;0.77;0.52;;;14.60;79.40;;;;;;4983903;28;20119;-80
2024/04/08 08:52:35;;;;;;;0.60;0.30;;;14.60;58.40;;;;;;4997950;28;20103;-81
2024/04/08 08:55:02;;;;;;;0.85;0.40;;;14.80;41.50;;;;;;5015856;28;20582;-80
2024/04/08 08:57:28;;;;;;;0.63;0.30;;;14.90;32.50;;;;;;4999089;28;20115;-81
2024/04/08 08:59:54;;;;;;;0.93;0.40;;;14.90;47.30;;;;;;4999759;28;20049;-80
2024/04/08 09:02:20;;;;;;;0.75;0.50;;;15.10;13.80;;;;;;4982296;28;20512;-80
2024/04/08 09:04:46;;;;;;;0.57;0.40;;;15.10;20.60;;;;;;4996540;28;20064;-80
2024/04/08 09:07:11;;;;;;;0.95;0.40;;;15.10;1.10;;;;;;4995781;28;20058;-80
2024/04/08 09:09:38;;;;;;;0.30;0.30;;;15.30;19.20;;;;;;4994726;28;20806;-79
2024/04/08 09:12:04;;;;;;;0.40;0.30;;;15.40;8.70;;;;;;4999249;28;20123;-79
2024/04/08 09:14:30;;;;;;;0.38;0.38;;;15.50;18.00;;;;;;4998848;28;20046;-79
2024/04/08 09:17:10;;;;;;;0.43;0.30;;;15.50;11.40;;;;;;4982452;28;20053;-79
2024/04/08 09:19:36;;;;;;;1.13;0.47;;;15.70;1.00;;;;;;4998172;28;20449;-78
2024/04/08 09:22:03;;;;;;;0.40;0.40;;;15.80;1.00;;;;;;4998026;28;20607;-79
2024/04/08 09:24:30;;;;;;;0.77;0.40;;;15.80;1.00;;;;;;4998788;28;20049;-79
2024/04/08 09:26:56;;;;;;;0.45;0.30;;;15.90;1.00;;;;;;4966903;28;20058;-79
2024/04/08 09:29:22;;;;;;;0.55;0.30;;;15.90;1.00;;;;;;4998763;28;20045;-78
2024/04/08 09:31:49;;;;;;;1.00;0.40;;;15.90;1.00;;;;;;4982779;28;20107;-79
2024/04/08 09:34:15;;;;;;;0.52;0.40;;;16.00;1.00;;;;;;5017082;28;20057;-79
2024/04/08 09:36:41;;;;;;;1.23;0.60;;;16.10;1.00;;;;;;5002812;28;20057;-80
2024/04/08 09:39:09;;;;;;;0.63;0.35;;;16.10;35.40;;;;;;5002380;28;20551;-78
2024/04/08 09:41:38;;;;;;;0.55;0.43;;;16.10;3.80;;;;;;5004468;28;20041;-82
2024/04/08 09:44:05;;;;;;;0.63;0.45;;;16.20;1.00;;;;;;5005635;28;20400;-80
2024/04/08 09:46:30;;;;;;;1.85;0.52;;;16.20;1.80;;;;;;4977774;28;20053;-80
2024/04/08 09:48:57;;;;;;;1.05;0.40;;;16.20;1.00;;;;;;4989019;28;20651;-80
2024/04/08 09:51:23;;;;;;;1.63;0.60;;;16.30;1.00;;;;;;4994369;28;20186;-80
2024/04/08 09:53:49;;;;;;;0.60;0.40;;;16.30;1.00;;;;;;4992367;28;20555;-80
2024/04/08 09:56:15;;;;;;;0.90;0.65;;;16.40;1.00;;;;;;4991796;28;20465;-80
2024/04/08 09:58:42;;;;;;;2.28;0.70;;;16.50;1.00;;;;;;4993123;28;20049;-80
2024/04/08 10:01:07;;;;;;;0.35;0.30;;;16.60;1.60;;;;;;4976040;28;20061;-79
2024/04/08 10:03:41;;;;;;;0.70;0.40;;;16.80;1.00;;;;;;4992336;28;20068;-80
2024/04/08 10:06:07;;;;;;;0.52;0.50;;;16.90;1.00;;;;;;4976744;28;20061;-80
2024/04/08 10:08:33;;;;;;;0.88;0.45;;;16.90;2.30;;;;;;5008376;28;20434;-80
2024/04/08 10:10:59;;;;;;;0.90;0.45;;;16.90;1.00;;;;;;4991864;28;20053;-80
2024/04/08 10:13:25;;;;;;;0.55;0.40;;;16.90;16.50;;;;;;4991922;28;20060;-80
2024/04/08 10:15:52;;;;;;;0.90;0.63;;;17.00;1.00;;;;;;5025135;28;20505;-79
2024/04/08 10:18:19;;;;;;;1.75;0.60;;;17.00;1.00;;;;;;4992147;28;20061;-80
2024/04/08 10:20:45;;;;;;;0.82;0.47;;;17.00;1.00;;;;;;4992203;28;20061;-79
2024/04/08 10:23:11;;;;;;;0.93;0.60;;;17.20;1.00;;;;;;4990743;28;20496;-80
2024/04/08 10:25:43;;;;;;;0.40;0.28;;;17.30;1.00;;;;;;4989109;28;20057;-80
2024/04/08 10:28:14;;;;;;;0.80;0.50;;;17.50;1.00;;;;;;5005867;28;20050;-80
2024/04/08 10:30:41;;;;;;;1.27;0.57;;;17.60;1.00;;;;;;4976260;28;20053;-80
2024/04/08 10:33:07;;;;;;;1.00;0.43;;;17.60;1.00;;;;;;5008058;28;20057;-80
2024/04/08 10:35:33;;;;;;;1.20;0.40;;;17.60;1.00;;;;;;4991970;28;20061;-81
2024/04/08 10:37:59;;;;;;;0.20;0.20;;;17.60;1.00;;;;;;4991335;28;20412;-80
2024/04/08 10:40:25;;;;;;;1.08;0.50;;;17.60;1.00;;;;;;5007750;28;20049;-81
2024/04/08 10:42:51;;;;;;;0.63;0.47;;;17.80;1.00;;;;;;4991109;28;20045;-81
2024/04/08 10:45:17;;;;;;;0.80;0.40;;;18.00;1.00;;;;;;4975327;28;20519;-80
2024/04/08 10:47:44;;;;;;;0.88;0.45;;;18.20;1.00;;;;;;4991555;28;20053;-80
2024/04/08 10:50:10;;;;;;;0.88;0.50;;;18.50;1.00;;;;;;5024143;28;20160;-80
2024/04/08 10:52:38;;;;;;;0.43;0.35;;;18.50;1.00;;;;;;5023398;28;20053;-80
2024/04/08 10:55:04;;;;;;;0.50;0.38;;;18.60;1.00;;;;;;4975314;28;20049;-80
2024/04/08 10:57:30;;;;;;;0.98;0.32;;;18.70;1.00;;;;;;4975319;28;20692;-80
2024/04/08 10:59:56;;;;;;;0.32;0.20;;;18.70;1.00;;;;;;5007448;28;20053;-80
2024/04/08 11:02:22;;;;;;;1.00;0.50;;;18.60;1.00;;;;;;4974817;28;20068;-81
2024/04/08 11:04:48;;;;;;;1.10;0.50;;;18.50;1.00;;;;;;5006923;28;20052;-79
2024/04/08 11:07:14;;;;;;;0.43;0.40;;;18.50;1.00;;;;;;4973689;28;20428;-79
2024/04/08 11:09:40;;;;;;;0.60;0.40;;;18.40;1.00;;;;;;5000756;28;20053;-80
2024/04/08 11:12:06;;;;;;;0.70;0.38;;;18.30;1.00;;;;;;4983582;28;20057;-79
2024/04/08 11:14:32;;;;;;;0.35;0.30;;;18.40;1.00;;;;;;4985216;28;20493;-79
2024/04/08 11:17:08;;;;;;;0.43;0.30;;;18.40;1.00;;;;;;4984255;28;20129;-79
2024/04/08 11:19:38;;;;;;;0.20;0.20;;;18.50;1.00;;;;;;5016726;28;20115;-78
2024/04/08 11:22:10;;;;;;;0.85;0.40;;;18.60;1.00;;;;;;4981857;28;20137;-78
2024/04/08 11:24:42;;;;;;;1.15;0.30;;;18.70;1.00;;;;;;4996301;28;20398;-79
2024/04/08 11:27:08;;;;;;;0.47;0.40;;;18.90;1.00;;;;;;4997963;28;20416;-79
2024/04/08 11:29:34;;;;;;;0.60;0.30;;;19.20;1.00;;;;;;4984779;28;20080;-79
2024/04/08 11:32:00;;;;;;;0.63;0.40;;;19.50;1.00;;;;;;4989170;28;20080;-79
2024/04/08 11:34:26;;;;;;;0.68;0.45;;;19.90;1.00;;;;;;4983911;28;20598;-79
2024/04/08 11:36:53;;;;;;;1.00;0.57;;;20.00;1.00;;;;;;4980134;28;20054;-78
2024/04/08 11:39:19;;;;;;;0.52;0.45;;;20.30;1.00;;;;;;4992354;28;20064;-79
2024/04/08 11:41:45;;;;;;;0.57;0.35;;;20.60;1.00;;;;;;4999388;28;20564;-78
2024/04/08 11:44:10;;;;;;;0.65;0.38;;;20.90;1.00;;;;;;4999786;28;20374;-79
2024/04/08 11:46:36;;;;;;;0.82;0.52;;;20.90;1.00;;;;;;5000557;28;20444;-79
2024/04/08 11:49:02;;;;;;;0.93;0.40;;;21.00;1.00;;;;;;4999927;28;20061;-78
2024/04/08 11:51:28;;;;;;;0.95;0.40;;;20.90;1.00;;;;;;4983392;28;20049;-78
2024/04/08 11:53:54;;;;;;;0.90;0.50;;;21.00;1.00;;;;;;4999413;28;20984;-79
2024/04/08 11:56:20;;;;;;;1.25;0.50;;;21.00;1.00;;;;;;4983115;28;20053;-78
2024/04/08 11:58:46;;;;;;;0.57;0.40;;;21.10;1.00;;;;;;4999118;28;20465;-78
2024/04/08 12:01:12;;;;;;;1.13;0.50;;;21.20;24.90;;;;;;4983409;28;20184;-78
2024/04/08 12:03:38;;;;;;;0.43;0.30;;;21.20;2.70;;;;;;5000500;28;20078;-79
2024/04/08 12:06:08;;;;;;;0.95;0.40;;;21.10;1.00;;;;;;4963888;28;20437;-81
2024/04/08 12:08:34;;;;;;;0.30;0.30;;;21.10;1.00;;;;;;4980617;28;20050;-81
2024/04/08 12:11:00;;;;;;;0.90;0.30;;;21.20;1.00;;;;;;4971361;28;20660;-76
2024/04/08 12:13:26;;;;;;;0.52;0.40;;;21.50;1.00;;;;;;4982908;28;20135;-77
2024/04/08 12:15:52;;;;;;;1.17;0.30;;;21.70;23.90;;;;;;4982884;28;20049;-77
2024/04/08 12:18:18;;;;;;;0.80;0.30;;;21.60;1.00;;;;;;4983180;28;20050;-81
2024/04/08 12:20:44;;;;;;;0.43;0.20;;;21.70;1.00;;;;;;4999491;28;20084;-79
2024/04/08 12:23:13;;;;;;;0.47;0.25;;;21.60;3.30;;;;;;5000143;28;20061;-78
2024/04/08 12:25:39;;;;;;;0.57;0.40;;;21.60;28.50;;;;;;4998611;28;20061;-77
2024/04/08 12:28:07;;;;;;;0.88;0.40;;;21.60;1.00;;;;;;4979308;28;20096;-78
2024/04/08 12:30:33;;;;;;;1.33;0.93;;;21.60;1.00;;;;;;4994292;28;20041;-78
2024/04/08 12:32:59;;;;;;;0.90;0.60;;;21.50;1.00;;;;;;4988458;28;20132;-78
2024/04/08 12:35:25;;;;;;;1.15;0.70;;;21.70;1.00;;;;;;5004693;28;20049;-79
2024/04/08 12:37:52;;;;;;;1.85;0.50;;;21.70;1.00;;;;;;5003337;28;20057;-78
2024/04/08 12:40:18;;;;;;;0.57;0.35;;;21.80;1.00;;;;;;4988445;28;20609;-79
2024/04/08 12:42:44;;;;;;;0.50;0.35;;;21.70;1.00;;;;;;5000265;28;20504;-79
2024/04/08 12:45:10;;;;;;;0.65;0.38;;;21.70;20.60;;;;;;5003930;28;20077;-79
2024/04/08 12:47:38;;;;;;;0.95;0.52;;;21.80;16.30;;;;;;4985212;28;20057;-78